Maricamp, Florida
Current Conditions -  °F | °C
As of 4:50 PM on Thursday 23 Oct 2014 (Local Time) from KOCF Reporting Station
Clear Clear  
Wind Chill: 77°   Ceiling: Unl
Heat Index: 78°   Visibility: 10mi
Dew Point: 50°   Wind: 6mph
Humidity: 39%   Direction: 40°NE
Pressure: 29.95"   Gusts: NA
Location:  29.1101°N, 81.9816°W
Report Text: KOCF 232050Z 04005KT 10SM CLR 25/10 A2995
Loading
Personal Weather Stations






























Interactive Weather Map
Tropical Storm Tracking
New forecast layout! Learn more

10-Day Weather Forecast

Advertisements
Track Severe Weather on mobile